Time;durP1;ratioP1;P1;durP2;ratioP2;P2;SDS_P1;SDS_P2;PMS_P1;PMS_P2;Temp;Humidity;BMP_temperature;BMP_pressure;BME280_temperature;BME280_humidity;BME280_pressure;Samples;Min_cycle;Max_cycle;Signal;HPM_P1;HPM_P2
2023/12/28 00:02:20;;;;;;;6.60;3.35;;;8.00;93.00;;;;;;5076915;28;20147;-54
2023/12/28 00:04:49;;;;;;;5.43;3.60;;;8.00;92.70;;;;;;5072660;28;20020;-54
2023/12/28 00:07:16;;;;;;;9.07;3.13;;;8.10;92.50;;;;;;5083610;28;20082;-53
2023/12/28 00:09:43;;;;;;;7.57;3.88;;;8.10;92.40;;;;;;5072405;28;20028;-51
2023/12/28 00:12:14;;;;;;;5.00;3.03;;;8.20;92.30;;;;;;5073243;28;20020;-50
2023/12/28 00:14:41;;;;;;;6.20;3.30;;;8.20;92.10;;;;;;5083590;28;20094;-48
2023/12/28 00:17:08;;;;;;;5.30;3.40;;;8.20;92.00;;;;;;5072538;28;20048;-49
2023/12/28 00:19:35;;;;;;;6.05;3.63;;;8.30;91.70;;;;;;5073421;28;20108;-47
2023/12/28 00:22:00;;;;;;;5.68;3.25;;;8.40;91.20;;;;;;5078320;28;20406;-49
2023/12/28 00:24:30;;;;;;;11.98;3.60;;;8.40;91.00;;;;;;5072807;28;20121;-47
2023/12/28 00:26:56;;;;;;;4.93;3.10;;;8.40;91.10;;;;;;5081406;28;20024;-46
2023/12/28 00:29:23;;;;;;;5.32;3.80;;;8.40;91.10;;;;;;5071547;28;20441;-49
2023/12/28 00:31:49;;;;;;;5.70;3.55;;;8.30;90.90;;;;;;5072563;28;20486;-47
2023/12/28 00:34:18;;;;;;;6.05;3.25;;;8.30;90.90;;;;;;5077677;28;20111;-48
2023/12/28 00:36:47;;;;;;;6.00;2.75;;;8.20;90.90;;;;;;5091009;28;20021;-47
2023/12/28 00:39:15;;;;;;;4.85;3.08;;;8.20;90.80;;;;;;5076576;28;20044;-47
2023/12/28 00:41:41;;;;;;;9.07;3.95;;;8.20;90.80;;;;;;5076434;28;20104;-46
2023/12/28 00:44:09;;;;;;;6.93;3.40;;;8.20;90.80;;;;;;5076242;28;20023;-48
2023/12/28 00:46:36;;;;;;;6.63;3.47;;;8.20;90.70;;;;;;5076290;28;20044;-48
2023/12/28 00:49:05;;;;;;;5.53;3.03;;;8.20;90.70;;;;;;5077863;28;20035;-49
2023/12/28 00:51:32;;;;;;;4.85;3.35;;;8.20;90.70;;;;;;5082956;28;20021;-50
2023/12/28 00:53:59;;;;;;;6.78;3.30;;;8.20;90.80;;;;;;5076244;28;20353;-48
2023/12/28 00:56:26;;;;;;;5.72;3.20;;;8.20;90.70;;;;;;5076486;28;20020;-48
2023/12/28 00:58:51;;;;;;;5.53;4.03;;;8.20;90.60;;;;;;5075912;28;20035;-47
2023/12/28 01:01:21;;;;;;;5.03;3.38;;;8.20;90.70;;;;;;5075771;28;20115;-46
2023/12/28 01:03:50;;;;;;;5.45;3.67;;;8.20;90.70;;;;;;5076139;28;20094;-50
2023/12/28 01:06:17;;;;;;;6.47;3.67;;;8.10;90.70;;;;;;5080570;28;20024;-52
2023/12/28 01:08:44;;;;;;;8.07;4.07;;;8.10;91.00;;;;;;5077242;28;20320;-49
2023/12/28 01:11:12;;;;;;;5.57;3.72;;;8.20;91.00;;;;;;5076108;28;20032;-48
2023/12/28 01:13:39;;;;;;;7.22;3.60;;;8.20;90.90;;;;;;5076416;28;20035;-49
2023/12/28 01:16:06;;;;;;;7.72;3.42;;;8.20;90.90;;;;;;5084982;28;20024;-50
2023/12/28 01:18:31;;;;;;;5.43;3.03;;;8.20;90.90;;;;;;5075502;28;20036;-51
2023/12/28 01:21:02;;;;;;;7.50;3.60;;;8.20;90.90;;;;;;5075804;28;20046;-47
2023/12/28 01:23:29;;;;;;;10.50;4.45;;;8.20;90.80;;;;;;5079571;28;20048;-47
2023/12/28 01:25:58;;;;;;;5.15;3.22;;;8.20;90.90;;;;;;5078450;28;20016;-47
2023/12/28 01:28:25;;;;;;;6.28;3.50;;;8.20;90.80;;;;;;5076455;28;20032;-47
2023/12/28 01:30:54;;;;;;;7.28;4.10;;;8.20;90.70;;;;;;5069723;28;20047;-49
2023/12/28 01:33:22;;;;;;;6.25;3.35;;;8.20;90.70;;;;;;5075693;28;20038;-48
2023/12/28 01:35:47;;;;;;;7.13;4.30;;;8.10;90.90;;;;;;5080490;28;20446;-50
2023/12/28 01:38:14;;;;;;;6.40;3.90;;;8.10;91.00;;;;;;5077514;28;20040;-46
2023/12/28 01:40:48;;;;;;;6.65;2.88;;;8.10;90.90;;;;;;5075780;28;20382;-49
2023/12/28 01:43:15;;;;;;;6.38;3.80;;;8.20;91.00;;;;;;5075416;28;20028;-48
2023/12/28 01:45:42;;;;;;;7.30;3.50;;;8.10;90.90;;;;;;5078640;28;20057;-47
2023/12/28 01:48:08;;;;;;;7.30;3.85;;;8.20;90.90;;;;;;5079958;28;20025;-48
2023/12/28 01:50:35;;;;;;;9.57;4.05;;;8.20;90.80;;;;;;5075305;28;20034;-48
2023/12/28 01:53:06;;;;;;;5.60;3.25;;;8.30;90.70;;;;;;5075892;28;20319;-47
2023/12/28 01:55:33;;;;;;;4.82;3.60;;;8.30;90.40;;;;;;5061541;28;20028;-48
2023/12/28 01:57:59;;;;;;;6.18;3.67;;;8.30;90.40;;;;;;5082033;28;20044;-47
2023/12/28 02:00:26;;;;;;;8.48;4.05;;;8.30;90.50;;;;;;5050757;28;20025;-50
2023/12/28 02:02:55;;;;;;;5.53;3.65;;;8.20;90.50;;;;;;5070288;28;20021;-48
2023/12/28 02:05:23;;;;;;;4.82;3.33;;;8.20;90.60;;;;;;5054945;28;20076;-51
2023/12/28 02:07:50;;;;;;;6.10;3.67;;;8.20;90.80;;;;;;5075415;28;20047;-47
2023/12/28 02:10:17;;;;;;;6.57;4.05;;;8.30;90.80;;;;;;5074985;28;20082;-48
2023/12/28 02:12:44;;;;;;;6.50;3.95;;;8.30;90.90;;;;;;5074723;28;20035;-47
2023/12/28 02:15:11;;;;;;;5.25;3.58;;;8.30;90.70;;;;;;5074930;28;20035;-48
2023/12/28 02:17:57;;;;;;;7.07;4.05;;;8.40;90.70;;;;;;5073792;28;20035;-51
2023/12/28 02:20:27;;;;;;;8.90;3.60;;;8.40;90.60;;;;;;5076214;28;20048;-49
2023/12/28 02:22:54;;;;;;;;;;;8.40;90.60;;;;;;5076063;28;20473;-47
2023/12/28 02:25:21;;;;;;;8.35;3.85;;;8.30;90.70;;;;;;5075018;28;20013;-49
2023/12/28 02:27:49;;;;;;;7.70;3.35;;;8.40;90.80;;;;;;5074683;28;20116;-50
2023/12/28 02:30:22;;;;;;;10.98;4.18;;;8.40;90.70;;;;;;5074487;28;20066;-52
2023/12/28 02:33:07;;;;;;;5.60;3.15;;;8.40;90.60;;;;;;5059446;28;20032;-48
2023/12/28 02:35:55;;;;;;;9.60;4.03;;;8.30;90.90;;;;;;5083170;28;20024;-47
2023/12/28 02:38:25;;;;;;;7.47;3.63;;;8.30;91.00;;;;;;5074422;28;20028;-48
2023/12/28 02:40:52;;;;;;;10.73;4.40;;;8.30;91.00;;;;;;5074344;28;20017;-47
2023/12/28 02:43:19;;;;;;;8.88;4.00;;;8.30;91.00;;;;;;5075457;28;20024;-47
2023/12/28 02:45:46;;;;;;;7.78;5.00;;;8.30;91.20;;;;;;5074923;28;20050;-48
2023/12/28 02:48:12;;;;;;;10.05;4.32;;;8.40;91.30;;;;;;5074229;28;20040;-47
2023/12/28 02:50:39;;;;;;;8.57;3.78;;;8.30;91.20;;;;;;5074927;28;20040;-48
2023/12/28 02:53:06;;;;;;;7.72;4.43;;;8.30;91.20;;;;;;5056395;28;20093;-48
2023/12/28 02:55:33;;;;;;;9.32;4.10;;;8.30;91.40;;;;;;5056302;28;20029;-47
2023/12/28 02:58:00;;;;;;;6.78;2.92;;;8.40;91.30;;;;;;5073748;28;20035;-47
2023/12/28 03:00:28;;;;;;;8.13;3.65;;;8.40;91.40;;;;;;5079166;28;20028;-47
2023/12/28 03:02:53;;;;;;;10.10;4.35;;;8.40;91.40;;;;;;5075535;28;20070;-49
2023/12/28 03:05:20;;;;;;;6.28;3.40;;;8.40;91.30;;;;;;5056606;28;20121;-47
2023/12/28 03:07:47;;;;;;;15.02;4.50;;;8.40;91.20;;;;;;5073544;28;20033;-50
2023/12/28 03:10:14;;;;;;;11.20;4.10;;;8.40;91.30;;;;;;5073747;28;20449;-47
2023/12/28 03:12:44;;;;;;;10.70;3.92;;;8.40;91.30;;;;;;5083456;28;20526;-49
2023/12/28 03:15:12;;;;;;;11.45;4.68;;;8.40;91.40;;;;;;5073962;28;20040;-51
2023/12/28 03:17:39;;;;;;;8.88;3.65;;;8.40;91.40;;;;;;5073347;28;20021;-49
2023/12/28 03:20:06;;;;;;;7.60;3.67;;;8.40;91.40;;;;;;5076774;28;20041;-47
2023/12/28 03:22:33;;;;;;;10.18;3.78;;;8.40;91.40;;;;;;5073736;28;20025;-50
2023/12/28 03:25:00;;;;;;;9.65;4.30;;;8.40;91.40;;;;;;5073951;28;20024;-47
2023/12/28 03:27:27;;;;;;;11.15;4.25;;;8.40;91.40;;;;;;5079189;28;20024;-47
2023/12/28 03:29:54;;;;;;;7.07;3.67;;;8.40;91.20;;;;;;5076825;28;20032;-47
2023/12/28 03:32:21;;;;;;;10.63;3.78;;;8.40;91.30;;;;;;5073789;28;20032;-49
2023/12/28 03:34:47;;;;;;;7.90;4.43;;;8.40;91.10;;;;;;5083000;28;20384;-47
2023/12/28 03:37:14;;;;;;;9.57;3.40;;;8.40;91.30;;;;;;5077585;28;20016;-49
2023/12/28 03:39:41;;;;;;;16.30;4.53;;;8.50;91.20;;;;;;5073172;28;20040;-49
2023/12/28 03:42:07;;;;;;;8.32;3.42;;;8.40;91.00;;;;;;5073909;28;20449;-50
2023/12/28 03:44:34;;;;;;;10.02;3.97;;;8.40;90.90;;;;;;5067268;28;20360;-47
2023/12/28 03:47:03;;;;;;;11.90;3.95;;;8.40;91.10;;;;;;5076840;28;20442;-46
2023/12/28 03:49:29;;;;;;;12.85;4.13;;;8.40;91.20;;;;;;5056078;28;20119;-48
2023/12/28 03:51:56;;;;;;;7.38;3.47;;;8.40;91.10;;;;;;5084349;28;20111;-49
2023/12/28 03:54:23;;;;;;;9.38;4.13;;;8.50;91.10;;;;;;5072191;28;20040;-48
2023/12/28 03:56:49;;;;;;;10.48;3.67;;;8.40;90.90;;;;;;5072245;28;20024;-47
2023/12/28 03:59:16;;;;;;;6.47;3.53;;;8.50;90.80;;;;;;5073026;28;20046;-47
2023/12/28 04:01:42;;;;;;;7.43;3.42;;;8.50;90.80;;;;;;5077510;28;20509;-48
2023/12/28 04:04:08;;;;;;;7.13;3.30;;;8.40;90.80;;;;;;5072954;28;20099;-48
2023/12/28 04:06:36;;;;;;;8.70;3.63;;;8.50;90.90;;;;;;5079094;28;20013;-48
2023/12/28 04:09:02;;;;;;;7.50;3.63;;;8.50;90.80;;;;;;5058681;28;20025;-49
2023/12/28 04:11:29;;;;;;;7.95;3.60;;;8.50;90.70;;;;;;5077102;28;20052;-49
2023/12/28 04:13:56;;;;;;;7.05;2.78;;;8.50;90.60;;;;;;5076192;28;20382;-49
2023/12/28 04:16:23;;;;;;;7.82;3.80;;;8.50;90.50;;;;;;5077177;28;20067;-47
2023/12/28 04:18:50;;;;;;;10.30;3.47;;;8.40;90.60;;;;;;5076869;28;20127;-48
2023/12/28 04:21:17;;;;;;;7.55;3.65;;;8.50;90.60;;;;;;5078528;28;20127;-49
2023/12/28 04:23:49;;;;;;;6.57;3.20;;;8.50;90.40;;;;;;5076881;28;20491;-47
2023/12/28 04:26:19;;;;;;;7.45;3.15;;;8.40;90.40;;;;;;5076701;28;20049;-49
2023/12/28 04:28:47;;;;;;;8.43;3.65;;;8.50;90.50;;;;;;5076884;28;20029;-46
2023/12/28 04:31:15;;;;;;;12.15;3.58;;;8.40;90.40;;;;;;5076530;28;20576;-47
2023/12/28 04:33:41;;;;;;;6.85;3.20;;;8.40;90.50;;;;;;5059492;28;20379;-47
2023/12/28 04:36:08;;;;;;;13.15;3.60;;;8.50;90.50;;;;;;5076010;28;20032;-46
2023/12/28 04:38:35;;;;;;;8.80;4.22;;;8.50;90.40;;;;;;5076698;28;20024;-47
2023/12/28 04:41:02;;;;;;;9.88;3.40;;;8.60;90.30;;;;;;5076415;28;20078;-50
2023/12/28 04:43:29;;;;;;;10.02;3.30;;;8.70;90.30;;;;;;5076610;28;20110;-49
2023/12/28 04:45:56;;;;;;;10.43;4.10;;;8.70;89.90;;;;;;5076225;28;20074;-48
2023/12/28 04:48:23;;;;;;;7.80;3.88;;;8.80;89.90;;;;;;5075126;28;20024;-48
2023/12/28 04:50:50;;;;;;;7.05;2.83;;;8.90;89.80;;;;;;5090502;28;20039;-47
2023/12/28 04:53:16;;;;;;;8.57;3.75;;;9.00;89.50;;;;;;5076456;28;20025;-47
2023/12/28 04:55:42;;;;;;;6.53;2.63;;;9.00;89.30;;;;;;5060486;28;20032;-47
2023/12/28 04:58:11;;;;;;;9.80;3.08;;;9.10;89.20;;;;;;5076293;28;20042;-49
2023/12/28 05:00:40;;;;;;;8.50;3.25;;;9.10;89.10;;;;;;5076950;28;20012;-48
2023/12/28 05:03:07;;;;;;;7.30;2.97;;;9.10;89.20;;;;;;5088237;28;20518;-49
2023/12/28 05:05:34;;;;;;;10.00;3.50;;;9.10;89.10;;;;;;5079707;28;20033;-50
2023/12/28 05:08:07;;;;;;;7.10;2.40;;;9.20;89.10;;;;;;5076170;28;20029;-48
2023/12/28 05:10:34;;;;;;;11.20;3.40;;;9.20;88.90;;;;;;5076070;28;20730;-47
2023/12/28 05:13:01;;;;;;;14.95;3.08;;;9.30;88.60;;;;;;5076153;28;20056;-50
2023/12/28 05:15:28;;;;;;;7.68;3.50;;;9.20;88.60;;;;;;5075008;28;20047;-47
2023/12/28 05:17:53;;;;;;;9.38;2.80;;;9.20;88.60;;;;;;5075921;28;20120;-49
2023/12/28 05:20:20;;;;;;;7.30;3.03;;;9.20;88.40;;;;;;5081123;28;20154;-47
2023/12/28 05:22:47;;;;;;;7.43;2.92;;;9.20;88.30;;;;;;5080260;28;20027;-51
2023/12/28 05:25:14;;;;;;;10.40;3.72;;;9.20;88.40;;;;;;5076087;28;20103;-49
2023/12/28 05:27:42;;;;;;;10.90;3.35;;;9.10;88.50;;;;;;5075722;28;20052;-50
2023/12/28 05:30:08;;;;;;;7.63;3.00;;;9.00;88.50;;;;;;5075707;28;20365;-48
2023/12/28 05:32:35;;;;;;;8.15;2.60;;;9.00;88.70;;;;;;5078242;28;20111;-49
2023/12/28 05:35:01;;;;;;;7.38;2.95;;;9.10;88.80;;;;;;5076766;28;20032;-48
2023/12/28 05:37:28;;;;;;;10.00;3.05;;;9.00;88.60;;;;;;5078530;28;20039;-48
2023/12/28 05:39:55;;;;;;;11.27;3.25;;;9.10;88.90;;;;;;5076400;28;20342;-49
2023/12/28 05:42:22;;;;;;;10.60;3.38;;;9.20;89.00;;;;;;5075497;28;20024;-47
2023/12/28 05:44:49;;;;;;;11.20;3.55;;;9.20;88.80;;;;;;5081447;28;20127;-52
2023/12/28 05:47:16;;;;;;;8.82;3.70;;;9.20;88.80;;;;;;5080484;28;20063;-49
2023/12/28 05:49:43;;;;;;;8.63;3.22;;;9.20;88.70;;;;;;5077899;28;20028;-51
2023/12/28 05:52:10;;;;;;;10.20;2.95;;;9.20;88.60;;;;;;5079320;28;20056;-51
2023/12/28 05:54:37;;;;;;;9.27;2.80;;;9.20;88.40;;;;;;5079843;28;20434;-48
2023/12/28 05:57:06;;;;;;;13.20;3.63;;;9.20;88.40;;;;;;5085823;28;20032;-48
2023/12/28 05:59:36;;;;;;;12.15;3.03;;;9.20;88.50;;;;;;5084162;28;20039;-52
2023/12/28 06:02:03;;;;;;;11.65;4.35;;;9.20;88.50;;;;;;5076900;28;20025;-47
2023/12/28 06:04:30;;;;;;;6.80;2.90;;;9.20;88.60;;;;;;5082482;28;20453;-48
2023/12/28 06:06:57;;;;;;;10.10;3.42;;;9.20;88.80;;;;;;5076676;28;20036;-50
2023/12/28 06:09:27;;;;;;;9.75;2.90;;;9.20;88.70;;;;;;5074874;28;20017;-51
2023/12/28 06:11:54;;;;;;;6.35;2.88;;;9.20;88.70;;;;;;5073642;28;20178;-48
2023/12/28 06:14:21;;;;;;;8.43;2.90;;;9.20;88.70;;;;;;5074871;28;20040;-49
2023/12/28 06:16:47;;;;;;;11.82;3.75;;;9.20;88.60;;;;;;5076702;28;20029;-49
2023/12/28 06:19:14;;;;;;;12.18;3.03;;;9.20;88.60;;;;;;5074467;28;20020;-50
2023/12/28 06:21:42;;;;;;;8.77;3.60;;;9.20;88.50;;;;;;5060651;28;20044;-49
2023/12/28 06:24:09;;;;;;;12.68;3.60;;;9.20;88.50;;;;;;5076112;28;20024;-49
2023/12/28 06:26:42;;;;;;;8.23;2.55;;;9.20;88.40;;;;;;5075113;28;20035;-48
2023/12/28 06:29:10;;;;;;;9.00;3.50;;;9.20;88.60;;;;;;5073790;28;20017;-50
2023/12/28 06:31:37;;;;;;;8.40;2.85;;;9.20;88.60;;;;;;5070208;28;20024;-49
2023/12/28 06:34:03;;;;;;;11.77;3.88;;;9.20;88.60;;;;;;5072751;28;20029;-48
2023/12/28 06:36:33;;;;;;;12.35;3.00;;;9.20;88.70;;;;;;5075098;28;20088;-47
2023/12/28 06:39:00;;;;;;;9.13;2.90;;;9.40;88.40;;;;;;5073738;28;20457;-53
2023/12/28 06:41:29;;;;;;;11.15;2.85;;;9.30;88.00;;;;;;5075032;28;20610;-48
2023/12/28 06:43:56;;;;;;;10.13;2.30;;;9.30;88.10;;;;;;5074048;28;20081;-48
2023/12/28 06:46:23;;;;;;;10.82;3.25;;;9.40;88.00;;;;;;5079709;28;20535;-53
2023/12/28 06:48:50;;;;;;;12.07;2.75;;;9.30;88.00;;;;;;5083431;28;20122;-48
2023/12/28 06:51:27;;;;;;;15.77;2.97;;;9.30;88.00;;;;;;5077261;28;20031;-49
2023/12/28 06:53:54;;;;;;;19.88;3.50;;;9.30;87.90;;;;;;5075770;28;20031;-50
2023/12/28 06:56:24;;;;;;;10.15;2.20;;;9.30;87.80;;;;;;5075895;28;20020;-49
2023/12/28 06:58:51;;;;;;;12.15;2.90;;;9.30;88.10;;;;;;5074285;28;20064;-47
2023/12/28 07:01:18;;;;;;;10.57;2.90;;;9.30;87.80;;;;;;5063969;28;20027;-49
2023/12/28 07:03:46;;;;;;;8.23;3.35;;;9.40;87.80;;;;;;5082370;28;20066;-48
2023/12/28 07:06:16;;;;;;;13.82;2.92;;;9.40;87.70;;;;;;5068743;28;20040;-51
2023/12/28 07:08:42;;;;;;;10.60;2.67;;;9.40;87.70;;;;;;5077014;28;20024;-50
2023/12/28 07:11:10;;;;;;;12.43;2.83;;;9.50;87.60;;;;;;5079250;28;20394;-52
2023/12/28 07:13:37;;;;;;;12.50;2.80;;;9.60;87.60;;;;;;5075391;28;20044;-52
2023/12/28 07:16:07;;;;;;;9.25;2.53;;;9.60;87.60;;;;;;5077426;28;20028;-48
2023/12/28 07:18:34;;;;;;;13.43;3.40;;;9.70;87.40;;;;;;5081998;28;20024;-49
2023/12/28 07:21:03;;;;;;;14.20;4.38;;;9.70;87.30;;;;;;5083005;28;20057;-49
2023/12/28 07:23:30;;;;;;;11.52;3.28;;;9.80;87.20;;;;;;5073844;28;20063;-48
2023/12/28 07:25:57;;;;;;;12.43;2.70;;;9.80;87.00;;;;;;5075949;28;20028;-48
2023/12/28 07:28:24;;;;;;;15.27;2.78;;;9.80;87.00;;;;;;5072295;28;20388;-53
2023/12/28 07:30:50;;;;;;;14.45;3.03;;;9.90;86.90;;;;;;5072796;28;20028;-50
2023/12/28 07:33:17;;;;;;;16.08;3.45;;;9.90;87.00;;;;;;5072855;28;20112;-53
2023/12/28 07:35:44;;;;;;;15.57;3.40;;;9.90;87.10;;;;;;5078504;28;20036;-52
2023/12/28 07:38:16;;;;;;;12.82;3.35;;;9.90;87.00;;;;;;5072823;28;20193;-48
2023/12/28 07:40:44;;;;;;;13.80;2.95;;;9.90;86.90;;;;;;5072537;28;20082;-51
2023/12/28 07:43:09;;;;;;;11.82;3.67;;;9.90;86.90;;;;;;5077222;28;20024;-48
2023/12/28 07:45:38;;;;;;;11.07;3.15;;;9.90;86.60;;;;;;5074605;28;20044;-48
2023/12/28 07:48:05;;;;;;;12.30;3.10;;;9.90;86.70;;;;;;5073876;28;20100;-49
2023/12/28 07:50:32;;;;;;;16.20;4.63;;;9.90;86.80;;;;;;5074766;28;20028;-50
2023/12/28 07:53:01;;;;;;;13.00;3.25;;;9.90;86.60;;;;;;5075804;28;20408;-48
2023/12/28 07:55:28;;;;;;;14.07;3.13;;;9.90;86.50;;;;;;5073191;28;20032;-48
2023/12/28 07:57:57;;;;;;;9.35;2.95;;;9.90;86.70;;;;;;5072762;28;20024;-51
2023/12/28 08:00:24;;;;;;;10.13;2.63;;;10.00;86.70;;;;;;5073732;28;20033;-51
2023/12/28 08:02:51;;;;;;;14.73;2.50;;;9.90;86.70;;;;;;5083053;28;20034;-52
2023/12/28 08:05:18;;;;;;;10.43;3.70;;;10.00;86.70;;;;;;5072614;28;20017;-48
2023/12/28 08:07:45;;;;;;;17.42;4.20;;;10.00;86.80;;;;;;5071893;28;20382;-48
2023/12/28 08:10:12;;;;;;;11.60;3.05;;;10.00;86.30;;;;;;5073808;28;20412;-51
2023/12/28 08:12:42;;;;;;;13.82;3.17;;;10.10;86.20;;;;;;5069832;28;20402;-48
2023/12/28 08:15:09;;;;;;;13.27;2.80;;;10.20;86.20;;;;;;5081301;28;20094;-51
2023/12/28 08:17:36;;;;;;;11.18;3.05;;;10.20;85.90;;;;;;5074947;28;20024;-48
2023/12/28 08:20:02;;;;;;;12.35;3.35;;;10.10;86.10;;;;;;5079748;28;20052;-51
2023/12/28 08:22:29;;;;;;;12.77;3.10;;;10.00;86.20;;;;;;5080705;28;20342;-48
2023/12/28 08:24:56;;;;;;;12.77;2.80;;;10.10;85.90;;;;;;5072159;28;20330;-49
2023/12/28 08:27:27;;;;;;;10.10;3.40;;;10.20;85.90;;;;;;5072530;28;20025;-53
2023/12/28 08:29:58;;;;;;;11.27;3.22;;;10.30;85.90;;;;;;5072572;28;20075;-53
2023/12/28 08:32:28;;;;;;;11.68;3.13;;;10.30;85.40;;;;;;5072170;28;20025;-48
2023/12/28 08:34:54;;;;;;;;;;;10.40;85.20;;;;;;5081160;28;20107;-48
2023/12/28 08:37:20;;;;;;;14.07;3.70;;;10.40;84.90;;;;;;5072258;28;20083;-50
2023/12/28 08:39:48;;;;;;;21.48;4.10;;;10.40;84.90;;;;;;5072196;28;20108;-52
2023/12/28 08:42:15;;;;;;;18.65;3.58;;;10.40;85.10;;;;;;5071922;28;20029;-51
2023/12/28 08:44:41;;;;;;;15.00;3.58;;;10.40;85.10;;;;;;5072279;28;20033;-50
2023/12/28 08:47:08;;;;;;;12.48;3.40;;;10.40;84.90;;;;;;5072206;28;20512;-50
2023/12/28 08:49:35;;;;;;;15.55;4.60;;;10.40;84.90;;;;;;5072044;28;20036;-48
2023/12/28 08:52:01;;;;;;;12.13;3.63;;;10.50;84.80;;;;;;5084003;28;20028;-49
2023/12/28 08:54:28;;;;;;;13.57;3.47;;;10.50;84.80;;;;;;5085727;28;20021;-48
2023/12/28 08:56:53;;;;;;;16.35;4.72;;;10.50;84.90;;;;;;5073086;28;20043;-48
2023/12/28 08:59:20;;;;;;;16.50;3.65;;;10.50;84.90;;;;;;5096140;28;20032;-48
2023/12/28 09:01:47;;;;;;;14.57;3.10;;;10.50;84.80;;;;;;5075761;28;20024;-49
2023/12/28 09:04:14;;;;;;;12.07;3.92;;;10.50;84.70;;;;;;5076066;28;20017;-49
2023/12/28 09:06:42;;;;;;;14.88;3.83;;;10.60;84.80;;;;;;5075557;28;20024;-49
2023/12/28 09:09:09;;;;;;;21.48;4.50;;;10.60;84.30;;;;;;5075560;28;20043;-48
2023/12/28 09:11:36;;;;;;;20.48;4.32;;;10.70;84.20;;;;;;5075486;28;20016;-49
2023/12/28 09:14:02;;;;;;;23.73;4.32;;;10.70;84.30;;;;;;5075612;28;20036;-51
2023/12/28 09:16:28;;;;;;;24.02;4.60;;;10.70;84.20;;;;;;5057681;28;20020;-51
2023/12/28 09:18:55;;;;;;;18.10;4.35;;;10.70;84.30;;;;;;5075736;28;20021;-48
2023/12/28 09:21:22;;;;;;;14.73;4.43;;;10.70;84.30;;;;;;5075309;28;20056;-50
2023/12/28 09:23:48;;;;;;;17.95;4.55;;;10.70;84.40;;;;;;5075790;28;20074;-48
2023/12/28 09:26:15;;;;;;;24.02;4.75;;;10.70;84.40;;;;;;5075858;28;20070;-50
2023/12/28 09:28:43;;;;;;;20.98;5.20;;;10.80;83.90;;;;;;5075677;28;20449;-48
2023/12/28 09:31:10;;;;;;;23.95;5.07;;;10.90;83.90;;;;;;5075457;28;20434;-48
2023/12/28 09:33:37;;;;;;;23.08;7.35;;;10.80;83.90;;;;;;5075557;28;20035;-48
2023/12/28 09:36:05;;;;;;;15.75;4.57;;;10.80;83.90;;;;;;5094725;28;20028;-50
2023/12/28 09:38:32;;;;;;;26.80;5.38;;;10.80;84.30;;;;;;5089319;28;20062;-49
2023/12/28 09:41:17;;;;;;;19.95;6.25;;;10.80;84.20;;;;;;5075557;28;20107;-50
2023/12/28 09:44:07;;;;;;;24.45;6.05;;;10.90;84.00;;;;;;5077376;28;20081;-49
2023/12/28 09:46:35;;;;;;;33.95;5.47;;;10.90;84.10;;;;;;5073273;28;20036;-49
2023/12/28 09:49:07;;;;;;;15.60;3.90;;;10.90;83.90;;;;;;5085585;28;20071;-52
2023/12/28 09:51:37;;;;;;;27.48;5.53;;;10.90;83.70;;;;;;5086871;28;20028;-48
2023/12/28 09:54:06;;;;;;;18.17;4.63;;;10.90;83.70;;;;;;5083821;28;20036;-49
2023/12/28 09:56:35;;;;;;;;;;;10.90;83.80;;;;;;5074485;28;20025;-49
2023/12/28 09:59:04;;;;;;;20.90;5.05;;;10.90;83.90;;;;;;5074763;28;19916;-50
2023/12/28 10:01:32;;;;;;;19.00;5.40;;;10.90;83.50;;;;;;5080302;28;20446;-48
2023/12/28 10:04:03;;;;;;;17.27;4.53;;;11.00;83.70;;;;;;5079443;28;20103;-51
2023/12/28 10:06:30;;;;;;;19.60;4.45;;;11.00;83.50;;;;;;5076708;28;20125;-49
2023/12/28 10:08:59;;;;;;;20.88;4.70;;;11.10;83.40;;;;;;5084156;28;20427;-50
2023/12/28 10:11:26;;;;;;;21.90;4.60;;;11.10;83.60;;;;;;5076087;28;20025;-48
2023/12/28 10:13:53;;;;;;;21.30;6.10;;;11.10;83.40;;;;;;5075708;28;20044;-49
2023/12/28 10:16:20;;;;;;;25.63;4.88;;;11.10;83.20;;;;;;5076735;28;20036;-48
2023/12/28 10:18:47;;;;;;;20.33;4.80;;;11.10;83.40;;;;;;5080798;28;20055;-49
2023/12/28 10:21:14;;;;;;;25.88;5.65;;;11.20;83.00;;;;;;5082674;28;20059;-51
2023/12/28 10:23:41;;;;;;;29.33;6.13;;;11.20;83.20;;;;;;5086594;28;20024;-48
2023/12/28 10:26:08;;;;;;;17.27;4.63;;;11.20;83.20;;;;;;5076319;28;20016;-48
2023/12/28 10:28:39;;;;;;;22.27;4.43;;;11.20;83.20;;;;;;5081333;28;20074;-49
2023/12/28 10:31:08;;;;;;;19.05;4.80;;;11.30;83.20;;;;;;5076039;28;20032;-51
2023/12/28 10:33:40;;;;;;;22.67;4.93;;;11.20;82.90;;;;;;5073889;28;20453;-48
2023/12/28 10:36:08;;;;;;;22.83;5.60;;;11.20;83.20;;;;;;5064042;28;20044;-48
2023/12/28 10:38:36;;;;;;;23.77;7.50;;;11.20;83.30;;;;;;5076372;28;20449;-48
2023/12/28 10:41:07;;;;;;;23.60;5.65;;;11.20;83.60;;;;;;5074207;28;20090;-51
2023/12/28 10:43:50;;;;;;;13.25;4.07;;;11.20;83.20;;;;;;5067281;28;20024;-49
2023/12/28 10:46:29;;;;;;;20.73;4.97;;;11.20;83.20;;;;;;5075202;28;20024;-49
2023/12/28 10:49:18;;;;;;;20.73;5.97;;;11.20;82.90;;;;;;5080170;28;20365;-48
2023/12/28 10:51:51;;;;;;;26.15;6.30;;;11.30;83.00;;;;;;5078939;28;20043;-51
2023/12/28 10:54:37;;;;;;;23.20;4.35;;;11.30;82.70;;;;;;5078931;28;20615;-52
2023/12/28 10:57:33;;;;;;;25.77;5.35;;;11.20;83.20;;;;;;5073090;28;20036;-48
2023/12/28 11:00:10;;;;;;;17.98;4.30;;;11.20;83.40;;;;;;5073877;28;20036;-50
2023/12/28 11:02:53;;;;;;;21.83;4.30;;;11.30;83.30;;;;;;5073318;28;20020;-51
2023/12/28 11:05:22;;;;;;;21.33;5.25;;;11.20;83.40;;;;;;5079934;28;20032;-49
2023/12/28 11:07:53;;;;;;;22.70;4.68;;;11.30;83.30;;;;;;5073742;28;20020;-48
2023/12/28 11:10:23;;;;;;;18.15;5.05;;;11.20;83.40;;;;;;5073194;28;20474;-50
2023/12/28 11:12:50;;;;;;;;;;;11.20;83.20;;;;;;5076427;28;20095;-50
2023/12/28 11:15:18;;;;;;;16.70;3.75;;;11.20;83.40;;;;;;5073543;28;20341;-50
2023/12/28 11:17:48;;;;;;;21.42;4.75;;;11.30;83.20;;;;;;5072902;28;20038;-48
2023/12/28 11:20:16;;;;;;;21.02;4.43;;;11.20;83.30;;;;;;5081326;28;20377;-50
2023/12/28 11:22:43;;;;;;;20.30;6.38;;;11.30;83.30;;;;;;5073107;28;20029;-52
2023/12/28 11:25:19;;;;;;;25.08;7.28;;;11.30;83.10;;;;;;5073857;28;20021;-50
2023/12/28 11:27:46;;;;;;;24.60;4.95;;;11.30;83.10;;;;;;5073238;28;20465;-48
2023/12/28 11:30:13;;;;;;;19.52;5.38;;;11.20;83.40;;;;;;5078933;28;20460;-50
2023/12/28 11:32:44;;;;;;;12.50;5.80;;;11.20;83.60;;;;;;5072746;28;20044;-49
2023/12/28 11:35:14;;;;;;;18.95;4.80;;;11.20;83.80;;;;;;5074959;28;20171;-48
2023/12/28 11:37:44;;;;;;;18.90;5.38;;;11.20;83.80;;;;;;5072998;28;20023;-48
2023/12/28 11:40:17;;;;;;;21.38;6.68;;;11.20;83.50;;;;;;5075748;28;20027;-48
2023/12/28 11:42:54;;;;;;;30.23;6.88;;;11.10;83.60;;;;;;5077373;28;20021;-48
2023/12/28 11:45:23;;;;;;;22.10;5.10;;;11.10;83.10;;;;;;5073303;28;20031;-48
2023/12/28 11:48:03;;;;;;;18.52;4.68;;;11.10;83.00;;;;;;5072911;28;20108;-50
2023/12/28 11:50:29;;;;;;;15.20;4.18;;;11.20;83.30;;;;;;5073099;28;20025;-48
2023/12/28 11:52:56;;;;;;;20.85;5.82;;;11.30;83.30;;;;;;5075124;28;20461;-50
2023/12/28 11:55:23;;;;;;;21.75;5.13;;;11.30;83.90;;;;;;5072834;28;20544;-48
2023/12/28 11:57:52;;;;;;;18.98;4.85;;;11.30;83.90;;;;;;5071716;28;20426;-48
2023/12/28 12:00:20;;;;;;;17.25;5.30;;;11.20;83.70;;;;;;5072668;28;20572;-47
2023/12/28 12:02:49;;;;;;;14.23;3.53;;;11.20;84.00;;;;;;5074900;28;20425;-46
2023/12/28 12:05:15;;;;;;;19.73;5.07;;;11.20;84.70;;;;;;5076652;28;20379;-46
2023/12/28 12:07:45;;;;;;;21.27;4.30;;;11.00;85.30;;;;;;5072386;28;20044;-46
2023/12/28 12:10:16;;;;;;;20.92;4.70;;;11.00;85.20;;;;;;5057066;28;20036;-46
2023/12/28 12:12:44;;;;;;;17.90;4.43;;;11.10;84.70;;;;;;5072303;28;20016;-47
2023/12/28 12:15:11;;;;;;;19.55;4.22;;;11.10;84.80;;;;;;5074619;28;20021;-47
2023/12/28 12:17:36;;;;;;;19.98;4.07;;;11.10;85.10;;;;;;5076700;28;20059;-46
2023/12/28 12:20:03;;;;;;;19.40;5.47;;;11.10;84.80;;;;;;5072348;28;20972;-48
2023/12/28 12:22:34;;;;;;;19.25;4.97;;;11.20;85.00;;;;;;5076658;28;20025;-47
2023/12/28 12:25:06;;;;;;;18.33;4.43;;;11.10;84.80;;;;;;5072017;28;20492;-48
2023/12/28 12:27:33;;;;;;;22.33;6.55;;;11.00;85.00;;;;;;5072077;28;20028;-48
2023/12/28 12:30:02;;;;;;;23.30;4.13;;;11.00;85.70;;;;;;5072683;28;20029;-46
2023/12/28 12:32:29;;;;;;;;;;;10.90;85.90;;;;;;5090042;28;20029;-46
2023/12/28 12:34:58;;;;;;;22.20;4.97;;;10.90;86.20;;;;;;5085792;28;19908;-45
2023/12/28 12:37:25;;;;;;;19.13;4.40;;;10.80;86.80;;;;;;5076234;28;20032;-43
2023/12/28 12:39:54;;;;;;;25.90;5.68;;;10.70;87.50;;;;;;5076125;28;20033;-45
2023/12/28 12:42:21;;;;;;;22.73;5.43;;;10.60;88.10;;;;;;5076352;28;20337;-47
2023/12/28 12:44:47;;;;;;;18.83;4.57;;;10.50;88.50;;;;;;5078637;28;20056;-45
2023/12/28 12:47:14;;;;;;;20.58;4.05;;;10.40;88.60;;;;;;5078413;28;20071;-46
2023/12/28 12:49:45;;;;;;;16.25;3.95;;;10.40;88.50;;;;;;5080641;28;20033;-46
2023/12/28 12:52:12;;;;;;;18.13;4.03;;;10.40;88.40;;;;;;5059085;28;20032;-45
2023/12/28 12:54:39;;;;;;;16.40;4.20;;;10.40;88.20;;;;;;5082717;28;20036;-45